Time;durP1;ratioP1;P1;durP2;ratioP2;P2;SDS_P1;SDS_P2;PMS_P1;PMS_P2;Temp;Humidity;BMP_temperature;BMP_pressure;BME280_temperature;BME280_humidity;BME280_pressure;Samples;Min_cycle;Max_cycle;Signal;HPM_P1;HPM_P2
2021/12/07 00:02:06;;;;;;;2.75;2.28;;;20.60;48.40;;;;;;4934717;28;20062;-59
2021/12/07 00:04:32;;;;;;;2.58;2.38;;;20.60;48.40;;;;;;4951240;28;20130;-59
2021/12/07 00:06:57;;;;;;;3.65;2.40;;;20.60;48.30;;;;;;4933291;28;20179;-59
2021/12/07 00:09:23;;;;;;;2.92;2.17;;;20.60;48.20;;;;;;4953851;28;20051;-57
2021/12/07 00:11:50;;;;;;;2.67;2.47;;;20.60;48.20;;;;;;4937793;28;20051;-59
2021/12/07 00:14:23;;;;;;;2.67;2.40;;;20.60;48.10;;;;;;4954929;28;20044;-58
2021/12/07 00:16:50;;;;;;;3.25;2.38;;;20.50;48.00;;;;;;4952044;28;20573;-58
2021/12/07 00:19:15;;;;;;;3.03;2.28;;;20.50;48.00;;;;;;4934618;28;20063;-59
2021/12/07 00:21:43;;;;;;;3.95;2.10;;;20.50;47.90;;;;;;4953704;28;20050;-57
2021/12/07 00:24:09;;;;;;;2.53;2.33;;;20.50;47.90;;;;;;4937617;28;20042;-58
2021/12/07 00:26:36;;;;;;;2.60;2.38;;;20.50;47.90;;;;;;4954163;28;20039;-59
2021/12/07 00:29:03;;;;;;;3.50;2.22;;;20.50;47.80;;;;;;4935167;28;21010;-57
2021/12/07 00:31:37;;;;;;;3.25;2.20;;;20.50;47.70;;;;;;4954918;28;20050;-55
2021/12/07 00:36:33;;;;;;;2.40;2.20;;;20.50;47.70;;;;;;4953297;28;20047;-57
2021/12/07 00:38:59;;;;;;;2.47;2.28;;;20.50;47.60;;;;;;4936086;28;20137;-57
2021/12/07 00:41:24;;;;;;;3.15;2.55;;;20.50;47.60;;;;;;4950530;28;20053;-56
2021/12/07 00:43:50;;;;;;;2.38;2.17;;;20.50;47.60;;;;;;4935450;28;20529;-57
2021/12/07 00:46:15;;;;;;;2.53;2.33;;;20.50;47.50;;;;;;4948198;28;20051;-56
2021/12/07 00:48:41;;;;;;;2.33;2.13;;;20.50;47.50;;;;;;4937727;28;21205;-56
2021/12/07 00:51:07;;;;;;;2.55;2.35;;;20.40;47.40;;;;;;4952810;28;20070;-56
2021/12/07 00:53:33;;;;;;;3.65;2.00;;;20.40;47.40;;;;;;4949816;28;20050;-55
2021/12/07 00:56:01;;;;;;;3.83;2.22;;;20.40;47.40;;;;;;4938787;28;20425;-56
2021/12/07 00:58:29;;;;;;;2.33;2.17;;;20.40;47.30;;;;;;4952934;28;20078;-57
2021/12/07 01:00:59;;;;;;;3.15;2.30;;;20.40;47.20;;;;;;4935588;28;20062;-57
2021/12/07 01:03:27;;;;;;;2.40;2.20;;;20.40;47.20;;;;;;4951898;28;20055;-56
2021/12/07 01:06:04;;;;;;;2.53;2.33;;;20.40;47.20;;;;;;4933219;28;20062;-55
2021/12/07 01:25:00;;;;;;;2.55;2.13;;;20.30;46.90;;;;;;4941003;28;20137;-55
2021/12/07 01:27:26;;;;;;;1.92;1.83;;;20.30;46.90;;;;;;4942500;28;20058;-58
2021/12/07 01:32:43;;;;;;;2.30;2.08;;;20.30;46.80;;;;;;4936042;28;20055;-57
2021/12/07 01:35:37;;;;;;;2.80;1.90;;;20.30;46.90;;;;;;4951932;28;20047;-58
2021/12/07 01:38:18;;;;;;;1.67;1.58;;;20.30;46.80;;;;;;4953922;28;20061;-57
2021/12/07 02:01:52;;;;;;;2.17;1.88;;;20.30;46.90;;;;;;4935761;28;20132;-58
2021/12/07 02:04:17;;;;;;;1.52;1.42;;;20.30;47.60;;;;;;4953662;28;20105;-57
2021/12/07 02:06:43;;;;;;;1.60;1.50;;;20.20;46.90;;;;;;4955111;28;20078;-59
2021/12/07 02:09:11;;;;;;;1.70;1.60;;;20.20;46.90;;;;;;4928748;28;20074;-58
2021/12/07 02:11:46;;;;;;;1.80;1.70;;;20.20;46.80;;;;;;4952942;28;20077;-58
2021/12/07 02:14:16;;;;;;;1.67;1.58;;;20.20;46.80;;;;;;4934184;28;20053;-57
2021/12/07 02:16:44;;;;;;;1.83;1.70;;;20.20;46.80;;;;;;4952300;28;20051;-56
2021/12/07 02:19:10;;;;;;;1.90;1.80;;;20.20;46.80;;;;;;4923596;28;20059;-58
2021/12/07 02:21:35;;;;;;;2.13;1.63;;;20.20;46.70;;;;;;4955735;28;20058;-57
2021/12/07 02:24:01;;;;;;;2.40;1.63;;;20.20;46.70;;;;;;4937763;28;21665;-57
2021/12/07 02:26:26;;;;;;;1.80;1.70;;;20.20;46.70;;;;;;4954199;28;20108;-58
2021/12/07 02:28:52;;;;;;;1.70;1.60;;;20.20;46.70;;;;;;4935387;28;20062;-58
2021/12/07 02:31:19;;;;;;;1.70;1.60;;;20.20;46.70;;;;;;4954147;28;20055;-58
2021/12/07 02:33:45;;;;;;;1.58;1.48;;;20.20;46.60;;;;;;4938001;28;20339;-58
2021/12/07 02:36:11;;;;;;;1.52;1.42;;;20.20;46.60;;;;;;4953870;28;20047;-58
2021/12/07 02:38:37;;;;;;;1.65;1.55;;;20.20;46.60;;;;;;4953073;28;20066;-56
2021/12/07 02:41:03;;;;;;;1.42;1.33;;;20.20;46.50;;;;;;4935179;28;20046;-57
2021/12/07 02:43:29;;;;;;;1.50;1.40;;;20.20;46.50;;;;;;4960810;28;20055;-57
2021/12/07 02:45:55;;;;;;;1.48;1.38;;;20.20;46.50;;;;;;4935974;28;20042;-58
2021/12/07 02:48:23;;;;;;;1.83;1.63;;;20.20;46.40;;;;;;4957633;28;20079;-56
2021/12/07 02:50:50;;;;;;;1.50;1.40;;;20.20;46.40;;;;;;4934811;28;20123;-58
2021/12/07 02:53:18;;;;;;;1.63;1.52;;;20.10;46.30;;;;;;4952545;28;20707;-58
2021/12/07 02:55:44;;;;;;;2.20;1.60;;;20.10;46.40;;;;;;4937847;28;20098;-58
2021/12/07 02:58:10;;;;;;;1.70;1.60;;;20.10;46.30;;;;;;4955696;28;20108;-58
2021/12/07 03:00:44;;;;;;;2.35;1.30;;;20.10;46.30;;;;;;4933795;28;20051;-57
2021/12/07 03:03:12;;;;;;;1.38;1.27;;;20.10;46.20;;;;;;4952004;28;20070;-58
2021/12/07 03:05:47;;;;;;;1.35;1.25;;;20.10;46.20;;;;;;4933280;28;20125;-58
2021/12/07 03:08:47;;;;;;;2.03;1.52;;;20.10;46.30;;;;;;4953255;28;20487;-57
2021/12/07 03:27:47;;;;;;;1.95;1.35;;;20.00;46.00;;;;;;4935347;28;20907;-58
2021/12/07 03:30:12;;;;;;;2.67;1.42;;;20.00;46.00;;;;;;4953171;28;20451;-57
2021/12/07 03:32:38;;;;;;;1.33;1.10;;;20.00;45.90;;;;;;4939268;28;20093;-59
2021/12/07 03:35:04;;;;;;;2.10;1.30;;;20.00;45.90;;;;;;4953935;28;20049;-58
2021/12/07 03:37:30;;;;;;;2.45;1.38;;;20.00;45.90;;;;;;4935965;28;20110;-58
2021/12/07 03:39:55;;;;;;;1.48;1.20;;;20.00;45.80;;;;;;4953234;28;20050;-56
2021/12/07 03:42:21;;;;;;;1.77;1.20;;;20.00;45.80;;;;;;4936467;28;20047;-58
2021/12/07 03:44:46;;;;;;;0.90;0.90;;;20.00;45.80;;;;;;4952848;28;20070;-59
2021/12/07 03:47:12;;;;;;;1.58;1.20;;;19.90;45.80;;;;;;4938508;28;20043;-57
2021/12/07 03:49:37;;;;;;;1.20;1.10;;;19.90;45.70;;;;;;4950719;28;20053;-57
2021/12/07 03:52:03;;;;;;;2.33;1.40;;;19.90;45.80;;;;;;4934304;28;20096;-58
2021/12/07 03:54:29;;;;;;;3.42;1.05;;;20.00;45.80;;;;;;4954733;28;20978;-58
2021/12/07 03:56:54;;;;;;;1.23;1.13;;;19.90;45.70;;;;;;4954234;28;20046;-58
2021/12/07 03:59:20;;;;;;;1.45;1.15;;;19.90;45.70;;;;;;4936104;28;20038;-58
2021/12/07 04:01:46;;;;;;;0.80;0.80;;;19.90;45.70;;;;;;4950022;28;20066;-58
2021/12/07 04:04:12;;;;;;;0.90;0.90;;;19.90;45.70;;;;;;4935643;28;20070;-57
2021/12/07 04:06:37;;;;;;;2.13;1.05;;;19.90;45.70;;;;;;4953131;28;20050;-58
2021/12/07 04:09:04;;;;;;;1.00;0.90;;;19.90;45.70;;;;;;4935785;28;20402;-56
2021/12/07 04:11:29;;;;;;;1.10;1.00;;;19.90;45.60;;;;;;4953586;28;20046;-58
2021/12/07 04:13:55;;;;;;;1.20;1.10;;;19.90;45.70;;;;;;4934556;28;20043;-58
2021/12/07 04:16:21;;;;;;;0.88;0.88;;;19.90;45.60;;;;;;4947203;28;20046;-56
2021/12/07 04:18:47;;;;;;;1.30;1.20;;;19.90;45.60;;;;;;4936096;28;20672;-58
2021/12/07 04:21:13;;;;;;;1.63;0.85;;;19.90;45.60;;;;;;4953935;28;20043;-57
2021/12/07 04:23:38;;;;;;;2.05;1.25;;;19.80;45.60;;;;;;4934323;28;23623;-58
2021/12/07 04:26:09;;;;;;;1.25;1.05;;;19.80;45.50;;;;;;4954415;28;20563;-58
2021/12/07 04:28:35;;;;;;;3.78;1.30;;;19.80;45.50;;;;;;4944674;28;20054;-56
2021/12/07 04:31:02;;;;;;;1.67;1.17;;;19.80;45.50;;;;;;4925665;28;20050;-56
2021/12/07 04:33:29;;;;;;;1.67;1.00;;;19.80;45.50;;;;;;4952745;28;20066;-58
2021/12/07 04:35:56;;;;;;;0.90;0.90;;;19.80;45.50;;;;;;4935484;28;20043;-58
2021/12/07 04:38:21;;;;;;;1.05;0.98;;;19.80;45.50;;;;;;4952972;28;20043;-57
2021/12/07 04:40:47;;;;;;;2.85;1.08;;;19.80;45.50;;;;;;4934209;28;20318;-58
2021/12/07 04:43:13;;;;;;;2.63;1.20;;;19.80;45.50;;;;;;4952645;28;20504;-58
2021/12/07 04:59:11;;;;;;;0.70;0.70;;;19.70;45.40;;;;;;4951807;28;20106;-59
2021/12/07 05:01:37;;;;;;;1.80;0.80;;;19.70;45.40;;;;;;4930975;28;21458;-58
2021/12/07 05:04:10;;;;;;;1.08;0.88;;;19.70;45.30;;;;;;4952414;28;20051;-58
2021/12/07 05:06:41;;;;;;;1.20;0.80;;;19.70;45.40;;;;;;4931372;28;20413;-59
2021/12/07 05:09:28;;;;;;;;;;;19.70;45.30;;;;;;4968901;28;20062;-58
2021/12/07 05:12:18;;;;;;;1.75;0.98;;;19.70;45.10;;;;;;4930668;28;19938;-58
2021/12/07 05:14:42;;;;;;;1.95;1.15;;;19.60;45.30;;;;;;4952541;28;20062;-57
2021/12/07 05:17:25;;;;;;;0.85;0.70;;;19.70;45.40;;;;;;4935877;28;20054;-58
2021/12/07 05:26:05;;;;;;;1.52;1.15;;;19.60;45.20;;;;;;4956771;28;20122;-57
2021/12/07 05:34:38;;;;;;;2.10;1.00;;;19.60;45.20;;;;;;4953267;28;20458;-58
2021/12/07 05:39:27;;;;;;;1.10;1.00;;;19.60;45.10;;;;;;4937290;28;20051;-58
2021/12/07 05:41:53;;;;;;;1.05;0.98;;;19.60;45.20;;;;;;4945881;28;20169;-57
2021/12/07 05:44:19;;;;;;;1.02;0.90;;;19.60;45.30;;;;;;4930503;28;20070;-57
2021/12/07 05:46:45;;;;;;;1.05;0.80;;;19.60;45.30;;;;;;4951834;28;20051;-60
2021/12/07 05:49:11;;;;;;;0.80;0.80;;;19.60;45.30;;;;;;4932090;28;20102;-58
2021/12/07 05:51:37;;;;;;;0.80;0.80;;;19.60;45.30;;;;;;4948734;28;20047;-58
2021/12/07 05:54:03;;;;;;;1.42;1.10;;;19.70;45.50;;;;;;4933763;28;20038;-58
2021/12/07 05:56:28;;;;;;;1.00;0.80;;;19.60;45.40;;;;;;4956822;28;20034;-58
2021/12/07 05:58:54;;;;;;;1.42;1.05;;;19.70;45.50;;;;;;4932381;28;20768;-58
2021/12/07 06:01:19;;;;;;;1.50;0.93;;;19.70;45.50;;;;;;4956787;28;20059;-57
2021/12/07 06:03:45;;;;;;;1.10;0.80;;;19.70;45.70;;;;;;4940145;28;20175;-58
2021/12/07 06:06:10;;;;;;;0.90;0.90;;;19.70;45.80;;;;;;4956396;28;20074;-58
2021/12/07 06:08:36;;;;;;;1.27;0.90;;;19.70;45.80;;;;;;4932331;28;20085;-58
2021/12/07 06:11:02;;;;;;;1.10;1.00;;;19.70;45.90;;;;;;4955758;28;20089;-58
2021/12/07 06:13:28;;;;;;;2.40;0.90;;;19.70;45.90;;;;;;4935136;28;20059;-57
2021/12/07 06:15:53;;;;;;;1.05;0.90;;;19.70;45.90;;;;;;4958847;28;20043;-59
2021/12/07 06:18:19;;;;;;;2.65;1.10;;;19.70;45.90;;;;;;4957631;28;20059;-61
2021/12/07 06:20:45;;;;;;;1.63;1.10;;;19.70;45.90;;;;;;4937406;28;20043;-61
2021/12/07 06:23:14;;;;;;;1.83;1.00;;;19.70;45.90;;;;;;4954404;28;20804;-58
2021/12/07 06:25:39;;;;;;;0.90;0.80;;;19.70;45.90;;;;;;4939473;28;20078;-60
2021/12/07 06:28:05;;;;;;;1.73;0.98;;;19.70;46.00;;;;;;4945962;28;20159;-60
2021/12/07 06:30:32;;;;;;;3.05;1.10;;;19.70;46.10;;;;;;4931711;28;20158;-60
2021/12/07 06:32:57;;;;;;;1.75;1.02;;;19.80;46.20;;;;;;4956992;28;20045;-59
2021/12/07 06:35:23;;;;;;;3.45;0.90;;;19.70;46.20;;;;;;4934805;28;20069;-59
2021/12/07 06:37:48;;;;;;;2.28;1.00;;;19.80;46.30;;;;;;4954117;28;20038;-59
2021/12/07 06:40:14;;;;;;;2.05;1.00;;;19.80;46.30;;;;;;4935885;28;21284;-59
2021/12/07 06:42:40;;;;;;;4.18;0.90;;;19.80;46.40;;;;;;4956422;28;20078;-58
2021/12/07 06:45:13;;;;;;;1.90;1.10;;;19.80;46.40;;;;;;4939757;28;20043;-60
2021/12/07 06:47:39;;;;;;;1.27;0.82;;;19.80;46.30;;;;;;4956355;28;20046;-61
2021/12/07 06:50:08;;;;;;;0.98;0.90;;;19.80;46.20;;;;;;4936869;28;20216;-60
2021/12/07 06:52:34;;;;;;;3.80;1.17;;;19.90;46.30;;;;;;4956687;28;20504;-59
2021/12/07 06:55:00;;;;;;;4.10;1.10;;;19.90;46.30;;;;;;4957157;28;20478;-59
2021/12/07 06:57:26;;;;;;;1.77;1.10;;;19.80;46.30;;;;;;4931442;28;20051;-59
2021/12/07 06:59:53;;;;;;;4.28;1.00;;;19.90;46.40;;;;;;4956575;28;20557;-59
2021/12/07 07:02:19;;;;;;;1.80;0.90;;;19.90;46.40;;;;;;4935854;28;20058;-60
2021/12/07 07:04:44;;;;;;;2.67;0.90;;;19.90;46.30;;;;;;4951460;28;20073;-60
2021/12/07 07:07:10;;;;;;;7.72;1.40;;;19.90;46.20;;;;;;4936258;28;20109;-60
2021/12/07 07:09:36;;;;;;;2.80;1.00;;;20.00;46.10;;;;;;4958533;28;20114;-61
2021/12/07 07:12:02;;;;;;;1.70;0.80;;;19.90;46.00;;;;;;4935612;28;20046;-61
2021/12/07 07:14:28;;;;;;;5.85;1.50;;;20.00;46.00;;;;;;4952941;28;20743;-61
2021/12/07 07:16:53;;;;;;;1.13;0.90;;;20.00;45.90;;;;;;4937648;28;20043;-60
2021/12/07 07:19:19;;;;;;;0.98;0.85;;;20.00;45.80;;;;;;4949637;28;20506;-60
2021/12/07 07:21:45;;;;;;;1.58;0.90;;;20.00;45.80;;;;;;4936594;28;20258;-60
2021/12/07 07:24:11;;;;;;;1.35;0.90;;;20.00;45.70;;;;;;4954118;28;20059;-61
2021/12/07 07:26:37;;;;;;;2.00;0.80;;;20.00;45.60;;;;;;4949347;28;20057;-59
2021/12/07 07:29:03;;;;;;;3.15;1.10;;;20.10;45.70;;;;;;4946410;28;20039;-60
2021/12/07 07:31:28;;;;;;;1.05;0.80;;;20.10;45.60;;;;;;4956478;28;20285;-61
2021/12/07 07:33:55;;;;;;;1.70;0.95;;;20.10;45.50;;;;;;4933571;28;20046;-60
2021/12/07 07:36:20;;;;;;;3.15;1.02;;;20.20;45.40;;;;;;4950622;28;20082;-60
2021/12/07 07:38:46;;;;;;;1.40;0.82;;;20.10;45.40;;;;;;4936805;28;20129;-60
2021/12/07 07:41:11;;;;;;;1.38;1.00;;;20.10;45.30;;;;;;4955426;28;20051;-61
2021/12/07 07:43:37;;;;;;;2.05;0.75;;;20.10;45.30;;;;;;4935705;28;20054;-60
2021/12/07 07:46:03;;;;;;;3.40;0.90;;;20.20;45.30;;;;;;4954510;28;20126;-61
2021/12/07 07:48:28;;;;;;;2.08;1.00;;;20.20;45.20;;;;;;4934815;28;20055;-60
2021/12/07 07:50:55;;;;;;;1.50;1.20;;;20.20;45.10;;;;;;4954000;28;20051;-60
2021/12/07 07:53:21;;;;;;;2.35;1.00;;;20.20;45.10;;;;;;4934945;28;20046;-61
2021/12/07 07:55:47;;;;;;;2.22;1.00;;;20.20;45.00;;;;;;4955480;28;20071;-61
2021/12/07 07:58:13;;;;;;;1.52;0.93;;;20.20;45.00;;;;;;4934172;28;20074;-60
2021/12/07 08:00:41;;;;;;;1.70;0.98;;;20.30;45.00;;;;;;4952108;28;20126;-61
2021/12/07 08:03:06;;;;;;;2.13;1.00;;;20.30;45.00;;;;;;4953293;28;20043;-60
2021/12/07 08:05:32;;;;;;;2.10;1.13;;;20.30;44.90;;;;;;4936423;28;20057;-59
2021/12/07 08:07:58;;;;;;;2.33;1.00;;;20.30;44.90;;;;;;4951639;28;20047;-60
2021/12/07 08:10:28;;;;;;;1.77;0.80;;;20.30;44.80;;;;;;4939038;28;20053;-60
2021/12/07 08:13:02;;;;;;;3.15;0.88;;;20.30;44.80;;;;;;4955270;28;20046;-61
2021/12/07 08:15:31;;;;;;;1.63;0.90;;;20.40;44.70;;;;;;4932245;28;20126;-60
2021/12/07 08:17:57;;;;;;;2.53;0.90;;;20.40;44.70;;;;;;4956111;28;20106;-59
2021/12/07 08:20:23;;;;;;;2.05;1.17;;;20.40;44.70;;;;;;4937376;28;20070;-59
2021/12/07 08:22:49;;;;;;;3.75;1.27;;;20.40;44.70;;;;;;4954287;28;20102;-60
2021/12/07 08:25:14;;;;;;;5.05;1.55;;;20.40;44.60;;;;;;4934284;28;20149;-59
2021/12/07 08:27:40;;;;;;;1.90;0.93;;;20.40;44.50;;;;;;4955020;28;20613;-59
2021/12/07 08:30:09;;;;;;;2.35;0.93;;;20.40;44.60;;;;;;4933453;28;20125;-59
2021/12/07 08:32:34;;;;;;;1.48;0.90;;;20.40;44.50;;;;;;4954768;28;20129;-59
2021/12/07 08:35:00;;;;;;;2.72;0.98;;;20.50;44.50;;;;;;4933238;28;20518;-58
2021/12/07 08:37:26;;;;;;;2.63;0.90;;;20.50;44.50;;;;;;4952578;28;20134;-58
2021/12/07 08:39:52;;;;;;;2.08;0.95;;;20.40;44.40;;;;;;4953917;28;20047;-60
2021/12/07 08:42:19;;;;;;;2.17;0.80;;;20.50;44.40;;;;;;4935310;28;20051;-58
2021/12/07 08:44:45;;;;;;;2.47;0.95;;;20.50;44.40;;;;;;4950605;28;20055;-59
2021/12/07 08:47:11;;;;;;;1.58;0.98;;;20.50;44.30;;;;;;4936144;28;20101;-59
2021/12/07 08:49:36;;;;;;;2.25;0.90;;;20.50;44.40;;;;;;4953796;28;20253;-59
2021/12/07 08:52:03;;;;;;;4.13;1.30;;;20.50;44.30;;;;;;4935513;28;20051;-59
2021/12/07 08:59:36;;;;;;;1.95;0.95;;;20.50;44.20;;;;;;4967635;28;20062;-59
2021/12/07 08:59:58;;;;;;;1.60;0.90;;;20.60;44.30;;;;;;4954423;28;20068;-59
2021/12/07 09:02:25;;;;;;;1.33;0.88;;;20.60;44.30;;;;;;4934435;28;20058;-59
2021/12/07 09:04:55;;;;;;;1.63;1.05;;;20.50;44.20;;;;;;4953466;28;20102;-60
2021/12/07 09:07:22;;;;;;;1.33;0.80;;;20.60;44.20;;;;;;4934057;28;20047;-59
2021/12/07 09:09:48;;;;;;;2.42;0.93;;;20.60;44.20;;;;;;4950200;28;20075;-59
2021/12/07 09:12:15;;;;;;;3.47;1.33;;;20.60;44.20;;;;;;4933203;28;20130;-59
2021/12/07 09:14:42;;;;;;;1.60;1.00;;;20.60;44.10;;;;;;4952546;28;20046;-58
2021/12/07 09:17:10;;;;;;;1.70;1.00;;;20.60;44.90;;;;;;4935948;28;20134;-58
2021/12/07 09:19:36;;;;;;;1.40;0.82;;;20.60;44.10;;;;;;4953673;28;20062;-59
2021/12/07 09:22:03;;;;;;;3.08;0.98;;;20.60;44.10;;;;;;4933670;28;20066;-59
2021/12/07 09:24:29;;;;;;;2.80;1.00;;;20.60;44.00;;;;;;4952270;28;20062;-58
2021/12/07 09:26:55;;;;;;;2.47;0.90;;;20.60;44.10;;;;;;4950725;28;20051;-58
2021/12/07 09:29:21;;;;;;;2.50;0.85;;;20.60;44.10;;;;;;4930251;28;20074;-59
2021/12/07 09:31:46;;;;;;;2.65;0.90;;;20.60;44.10;;;;;;4950331;28;20398;-59
2021/12/07 09:34:12;;;;;;;1.63;0.90;;;20.60;44.10;;;;;;4933797;28;20035;-59
2021/12/07 09:36:40;;;;;;;2.20;0.82;;;20.70;44.10;;;;;;4952369;28;20046;-58
2021/12/07 09:39:08;;;;;;;2.15;0.95;;;20.70;44.10;;;;;;4947349;28;20126;-58
2021/12/07 09:41:34;;;;;;;2.15;0.98;;;20.60;44.10;;;;;;4950236;28;20687;-58
2021/12/07 09:44:00;;;;;;;2.15;0.90;;;20.60;44.10;;;;;;4936836;28;20418;-58
2021/12/07 09:46:26;;;;;;;1.60;0.88;;;20.70;44.20;;;;;;4952245;28;20053;-58
2021/12/07 09:48:52;;;;;;;2.67;1.02;;;20.70;44.20;;;;;;4933192;28;20039;-57
2021/12/07 09:51:21;;;;;;;2.38;1.10;;;20.70;44.20;;;;;;4954676;28;20099;-59
2021/12/07 09:53:50;;;;;;;1.27;0.85;;;20.70;44.20;;;;;;4931076;28;20075;-58
2021/12/07 09:56:18;;;;;;;2.67;1.10;;;20.60;44.10;;;;;;4952839;28;20880;-60
2021/12/07 09:58:45;;;;;;;2.08;1.00;;;20.60;44.20;;;;;;4932382;28;20535;-58
2021/12/07 10:01:11;;;;;;;1.60;0.80;;;20.70;44.20;;;;;;4953898;28;20047;-58
2021/12/07 10:03:38;;;;;;;2.67;1.20;;;20.70;44.40;;;;;;4950128;28;20068;-58
2021/12/07 10:06:04;;;;;;;4.45;1.00;;;20.70;44.40;;;;;;4932445;28;20125;-59
2021/12/07 10:08:29;;;;;;;2.75;1.15;;;20.70;44.50;;;;;;4943223;28;20769;-60
2021/12/07 10:10:57;;;;;;;3.38;0.90;;;20.70;44.60;;;;;;4938335;28;20043;-59
2021/12/07 10:13:28;;;;;;;2.08;0.95;;;20.70;44.80;;;;;;4973586;28;20056;-59
2021/12/07 10:15:56;;;;;;;2.72;0.75;;;20.70;44.90;;;;;;4953211;28;20042;-59
2021/12/07 10:18:24;;;;;;;2.45;0.90;;;20.70;44.90;;;;;;4970778;28;20101;-60
2021/12/07 10:20:53;;;;;;;3.22;1.13;;;20.70;45.00;;;;;;4954076;28;20043;-59
2021/12/07 10:23:19;;;;;;;3.65;1.45;;;20.70;45.10;;;;;;4951763;28;20081;-59
2021/12/07 10:25:55;;;;;;;5.35;1.00;;;20.70;45.20;;;;;;4940224;28;20064;-59
2021/12/07 10:28:46;;;;;;;2.53;1.15;;;20.80;45.30;;;;;;4969841;28;20042;-59
2021/12/07 10:31:23;;;;;;;3.80;1.20;;;20.70;45.50;;;;;;4951059;28;20588;-59
2021/12/07 10:33:59;;;;;;;5.50;0.90;;;20.80;45.60;;;;;;4972005;28;20518;-60
2021/12/07 10:36:33;;;;;;;3.80;1.02;;;20.80;45.70;;;;;;4947229;28;20074;-59
2021/12/07 10:39:04;;;;;;;3.63;1.20;;;20.80;45.90;;;;;;4972739;28;20059;-59
2021/12/07 10:41:37;;;;;;;3.60;1.08;;;20.80;45.80;;;;;;4956450;28;20042;-58
2021/12/07 10:44:15;;;;;;;3.15;1.00;;;20.80;45.80;;;;;;4975865;28;20058;-59
2021/12/07 10:46:52;;;;;;;2.45;0.95;;;20.80;45.80;;;;;;4955594;28;20182;-59
2021/12/07 10:49:22;;;;;;;3.00;0.85;;;20.80;45.90;;;;;;4973215;28;20137;-59
2021/12/07 10:52:02;;;;;;;2.25;1.05;;;20.70;45.90;;;;;;4955813;28;20807;-59
2021/12/07 10:54:29;;;;;;;4.10;1.13;;;20.80;45.90;;;;;;4975987;28;20491;-59
2021/12/07 10:56:56;;;;;;;3.05;0.90;;;20.80;45.90;;;;;;4953695;28;20043;-59
2021/12/07 10:59:21;;;;;;;2.50;1.10;;;20.80;46.00;;;;;;4976144;28;20050;-59
2021/12/07 11:01:50;;;;;;;4.40;1.20;;;20.80;46.00;;;;;;4955072;28;20695;-59
2021/12/07 11:04:23;;;;;;;2.00;0.98;;;20.80;46.00;;;;;;4972225;28;20050;-59
2021/12/07 11:07:10;;;;;;;2.13;0.95;;;20.80;45.90;;;;;;4954509;28;20053;-59
2021/12/07 11:09:55;;;;;;;2.67;0.95;;;20.80;45.80;;;;;;4974269;28;20319;-59
2021/12/07 11:12:22;;;;;;;1.73;1.10;;;20.80;45.80;;;;;;4953911;28;20621;-59
2021/12/07 11:14:52;;;;;;;1.80;0.93;;;20.80;45.80;;;;;;4972209;28;21423;-59
2021/12/07 11:17:24;;;;;;;2.73;1.00;;;20.80;45.80;;;;;;4956914;28;20756;-58
2021/12/07 11:19:51;;;;;;;2.35;0.88;;;20.70;45.70;;;;;;4974342;28;20304;-59
2021/12/07 11:22:20;;;;;;;2.08;0.80;;;20.80;45.80;;;;;;4974589;28;20149;-58
2021/12/07 11:24:47;;;;;;;2.58;1.00;;;20.80;45.80;;;;;;4957072;28;20061;-59
2021/12/07 11:30:12;;;;;;;2.80;1.17;;;20.70;45.70;;;;;;4956717;28;20141;-60
2021/12/07 11:32:43;;;;;;;2.55;0.95;;;20.70;45.70;;;;;;4967668;28;20080;-58
2021/12/07 11:35:13;;;;;;;2.05;0.90;;;20.70;45.70;;;;;;4952680;28;20510;-59
2021/12/07 11:37:39;;;;;;;3.83;1.13;;;20.70;45.70;;;;;;4971302;28;20060;-58
2021/12/07 11:40:07;;;;;;;2.70;0.82;;;20.70;45.70;;;;;;4956563;28;20038;-58
2021/12/07 11:42:37;;;;;;;2.47;1.05;;;20.70;45.70;;;;;;4974358;28;20042;-58
2021/12/07 11:45:28;;;;;;;4.35;1.20;;;20.70;45.70;;;;;;4951286;28;20054;-58
2021/12/07 11:47:56;;;;;;;3.72;1.30;;;20.70;45.60;;;;;;4973882;28;20900;-59
2021/12/07 11:50:33;;;;;;;1.83;1.02;;;20.70;45.70;;;;;;4950268;28;20050;-58
2021/12/07 11:53:21;;;;;;;3.80;1.30;;;20.70;45.70;;;;;;4977338;28;20073;-58
2021/12/07 11:55:51;;;;;;;3.13;1.08;;;20.80;45.80;;;;;;4953020;28;20070;-58
2021/12/07 11:58:18;;;;;;;2.53;0.93;;;20.70;45.80;;;;;;4972578;28;20046;-57
2021/12/07 12:00:54;;;;;;;1.70;1.05;;;20.70;45.90;;;;;;4952204;28;20085;-58
2021/12/07 12:03:22;;;;;;;3.22;1.00;;;20.80;45.90;;;;;;4970948;28;20502;-58
2021/12/07 12:05:49;;;;;;;2.95;0.90;;;20.70;45.90;;;;;;4954863;28;20592;-58
2021/12/07 12:08:19;;;;;;;4.82;1.30;;;20.70;46.00;;;;;;4972772;28;20462;-58
2021/12/07 12:10:49;;;;;;;4.70;1.35;;;20.70;46.10;;;;;;4952967;28;20058;-58
2021/12/07 12:13:43;;;;;;;4.00;1.25;;;20.80;46.20;;;;;;4971009;28;20047;-58
2021/12/07 12:16:15;;;;;;;2.50;1.17;;;20.70;46.20;;;;;;4953847;28;20093;-57
2021/12/07 12:18:59;;;;;;;3.65;0.90;;;20.80;46.30;;;;;;4976401;28;20737;-59
2021/12/07 12:21:40;;;;;;;4.05;1.13;;;20.80;46.30;;;;;;4954180;28;20046;-58
2021/12/07 12:24:25;;;;;;;4.32;1.20;;;20.80;46.40;;;;;;4974794;28;20046;-58
2021/12/07 12:27:06;;;;;;;3.05;1.25;;;20.70;46.30;;;;;;4954969;28;20058;-59
2021/12/07 12:29:34;;;;;;;5.20;1.30;;;20.80;46.40;;;;;;4967268;28;20054;-59
2021/12/07 12:32:00;;;;;;;2.38;1.23;;;20.70;46.40;;;;;;4958590;28;20053;-60
2021/12/07 12:34:31;;;;;;;3.22;1.45;;;20.80;46.40;;;;;;4972679;28;20049;-59
2021/12/07 12:37:10;;;;;;;2.47;1.10;;;20.70;46.40;;;;;;4953391;28;20038;-60
2021/12/07 12:39:40;;;;;;;2.40;1.02;;;20.80;46.40;;;;;;4975574;28;20061;-59
2021/12/07 12:42:06;;;;;;;2.80;1.20;;;20.80;46.50;;;;;;4952846;28;20053;-59
2021/12/07 12:44:36;;;;;;;3.75;1.33;;;20.70;46.40;;;;;;4972622;28;20038;-60
2021/12/07 12:47:03;;;;;;;3.88;1.00;;;20.70;46.40;;;;;;4950450;28;20058;-60
2021/12/07 12:49:40;;;;;;;1.40;1.00;;;20.70;46.40;;;;;;4973219;28;20050;-58
2021/12/07 12:52:07;;;;;;;5.00;1.20;;;20.70;46.50;;;;;;4951674;28;20043;-59
2021/12/07 12:54:46;;;;;;;4.53;1.13;;;20.70;46.50;;;;;;4986690;28;20053;-59
2021/12/07 12:57:16;;;;;;;3.63;1.35;;;20.70;46.40;;;;;;4947657;28;20030;-60
2021/12/07 12:59:46;;;;;;;3.45;1.20;;;20.70;46.50;;;;;;4971967;28;20101;-59
2021/12/07 13:02:13;;;;;;;3.97;1.55;;;20.70;46.50;;;;;;4954621;28;20046;-59
2021/12/07 13:04:39;;;;;;;3.30;1.13;;;20.70;46.40;;;;;;4972005;28;20050;-59
2021/12/07 13:09:40;;;;;;;2.80;1.13;;;20.80;46.50;;;;;;4961600;28;20275;-59
2021/12/07 13:12:14;;;;;;;2.97;1.10;;;20.80;46.50;;;;;;4971314;28;20038;-59
2021/12/07 13:14:51;;;;;;;1.95;1.00;;;20.70;46.40;;;;;;4953169;28;20042;-59
2021/12/07 13:17:20;;;;;;;3.00;1.05;;;20.70;46.90;;;;;;4967970;28;20078;-59
2021/12/07 13:20:10;;;;;;;2.35;1.10;;;20.70;46.40;;;;;;4953097;28;20054;-60
2021/12/07 13:22:56;;;;;;;3.22;1.30;;;20.80;46.30;;;;;;4971190;28;20050;-58
2021/12/07 13:25:25;;;;;;;3.53;1.35;;;20.70;46.20;;;;;;4950019;28;20070;-59
2021/12/07 13:28:04;;;;;;;5.30;1.40;;;20.70;46.40;;;;;;4969542;28;20138;-59
2021/12/07 13:30:58;;;;;;;3.65;1.40;;;20.70;46.30;;;;;;4951758;28;21372;-59
2021/12/07 13:33:30;;;;;;;4.50;1.15;;;20.70;46.30;;;;;;4965998;28;20498;-59
2021/12/07 13:35:55;;;;;;;3.85;1.50;;;20.70;46.50;;;;;;4959398;28;20501;-59
2021/12/07 13:38:26;;;;;;;4.15;1.42;;;20.70;46.50;;;;;;4967104;28;20145;-59
2021/12/07 13:41:15;;;;;;;2.95;1.45;;;20.70;46.50;;;;;;4953784;28;20437;-59
2021/12/07 13:43:43;;;;;;;4.15;1.55;;;20.70;46.40;;;;;;4966632;28;20058;-58
2021/12/07 13:46:16;;;;;;;2.42;1.35;;;20.70;46.50;;;;;;4949651;28;20631;-60
2021/12/07 13:48:45;;;;;;;4.95;1.45;;;20.70;46.50;;;;;;4971816;28;20102;-59
2021/12/07 13:51:13;;;;;;;4.13;1.58;;;20.70;46.50;;;;;;4952173;28;20054;-59
2021/12/07 13:53:41;;;;;;;4.05;1.55;;;20.80;46.50;;;;;;4970181;28;20085;-58
2021/12/07 13:56:08;;;;;;;4.68;1.60;;;20.70;46.50;;;;;;4952391;28;20057;-59
2021/12/07 13:58:55;;;;;;;3.53;1.30;;;20.70;46.50;;;;;;4969910;28;20065;-58
2021/12/07 14:01:22;;;;;;;3.50;1.38;;;20.70;46.40;;;;;;4950431;28;20112;-58
2021/12/07 14:03:48;;;;;;;2.17;1.13;;;20.70;46.50;;;;;;4972354;28;20066;-60
2021/12/07 14:06:14;;;;;;;2.97;1.60;;;20.70;46.60;;;;;;4949791;28;20775;-59
2021/12/07 14:08:39;;;;;;;3.97;1.60;;;20.70;46.50;;;;;;4973070;28;20046;-58
2021/12/07 14:11:05;;;;;;;4.53;1.60;;;20.70;46.40;;;;;;4954379;28;20053;-59
2021/12/07 14:13:31;;;;;;;2.63;1.30;;;20.70;46.40;;;;;;4973031;28;20449;-60
2021/12/07 14:15:57;;;;;;;2.28;1.40;;;20.70;46.40;;;;;;4958966;28;20039;-59
2021/12/07 14:18:25;;;;;;;3.10;1.40;;;20.70;46.40;;;;;;4977384;28;20058;-59
2021/12/07 14:20:52;;;;;;;3.70;1.70;;;20.70;46.30;;;;;;4950824;28;20039;-59
2021/12/07 14:23:45;;;;;;;3.85;1.67;;;20.70;46.30;;;;;;4975600;28;20117;-60
2021/12/07 14:26:12;;;;;;;2.88;1.30;;;20.70;46.30;;;;;;4955667;28;22158;-59
2021/12/07 14:28:44;;;;;;;3.88;1.27;;;20.70;46.30;;;;;;4976162;28;20042;-59
2021/12/07 14:31:16;;;;;;;3.63;1.42;;;20.70;46.30;;;;;;4959761;28;20561;-58
2021/12/07 14:33:43;;;;;;;4.05;1.63;;;20.70;46.30;;;;;;4974687;28;20509;-59